createdAt,value
2022-10-03T00:01:17.276Z,7.83
2022-10-03T00:06:48.813Z,6.63
2022-10-03T00:09:35.542Z,7.65
2022-10-03T00:12:16.789Z,7.28
2022-10-03T00:15:10.251Z,9.95
2022-10-03T00:18:12.218Z,7.50
2022-10-03T00:20:53.973Z,7.25
2022-10-03T00:23:27.925Z,7.07
2022-10-03T00:26:22.463Z,7.45
2022-10-03T00:29:18.694Z,7.95
2022-10-03T00:31:52.623Z,7.30
2022-10-03T00:34:34.576Z,6.57
2022-10-03T00:37:19.276Z,11.05
2022-10-03T00:40:11.949Z,7.53
2022-10-03T00:43:13.346Z,8.53
2022-10-03T00:46:01.353Z,10.20
2022-10-03T00:48:52.895Z,9.32
2022-10-03T00:51:40.079Z,9.23
2022-10-03T00:54:43.795Z,7.72
2022-10-03T00:57:51.906Z,7.32
2022-10-03T01:00:28.287Z,6.75
2022-10-03T01:03:14.088Z,7.90
2022-10-03T01:05:57.719Z,7.10
2022-10-03T01:08:29.974Z,7.68
2022-10-03T01:11:05.525Z,8.70
2022-10-03T01:13:51.842Z,10.95
2022-10-03T01:16:54.178Z,7.70
2022-10-03T01:19:38.989Z,8.88
2022-10-03T01:22:23.704Z,8.50
2022-10-03T01:25:02.840Z,8.00
2022-10-03T01:28:05.795Z,8.00
2022-10-03T01:30:41.151Z,7.85
2022-10-03T01:33:15.226Z,8.05
2022-10-03T01:35:57.392Z,8.95
2022-10-03T01:38:38.357Z,8.02
2022-10-03T01:41:11.393Z,8.88
2022-10-03T01:43:57.441Z,9.63
2022-10-03T01:46:38.292Z,10.32
2022-10-03T01:49:13.749Z,8.18
2022-10-03T01:52:03.489Z,8.77
2022-10-03T01:54:36.849Z,9.90
2022-10-03T01:57:21.893Z,9.00
2022-10-03T02:00:21.847Z,8.40
2022-10-03T02:03:20.527Z,9.60
2022-10-03T02:06:40.365Z,11.80
2022-10-03T02:09:25.457Z,9.25
2022-10-03T02:11:54.733Z,9.45
2022-10-03T02:14:40.035Z,11.48
2022-10-03T02:17:42.195Z,11.88
2022-10-03T02:20:23.078Z,9.35
2022-10-03T02:22:53.540Z,10.57
2022-10-03T02:25:31.083Z,11.75
2022-10-03T02:28:18.696Z,10.82
2022-10-03T02:31:06.262Z,10.27
2022-10-03T02:34:23.081Z,8.55
2022-10-03T02:37:11.077Z,9.90
2022-10-03T02:40:03.657Z,9.20
2022-10-03T02:43:05.328Z,8.50
2022-10-03T02:45:59.590Z,10.65
2022-10-03T02:48:32.674Z,9.30
2022-10-03T02:54:03.178Z,9.40
2022-10-03T02:57:04.315Z,8.77
2022-10-03T02:59:36.674Z,10.27
2022-10-03T03:02:12.137Z,8.93
2022-10-03T03:05:12.704Z,9.10
2022-10-03T03:07:45.524Z,7.72
2022-10-03T03:10:39.965Z,10.25
2022-10-03T03:13:12.345Z,9.38
2022-10-03T03:16:11.038Z,9.32
2022-10-03T03:19:16.939Z,9.45
2022-10-03T03:22:01.520Z,8.43
2022-10-03T03:24:54.329Z,9.77
2022-10-03T03:27:44.408Z,13.98
2022-10-03T03:30:18.303Z,8.25
2022-10-03T03:33:28.340Z,8.98
2022-10-03T03:36:22.929Z,8.40
2022-10-03T03:39:05.796Z,8.98
2022-10-03T03:41:46.546Z,12.50
2022-10-03T03:44:32.374Z,10.50
2022-10-03T03:47:30.198Z,10.98
2022-10-03T03:50:13.488Z,8.77
2022-10-03T03:52:58.396Z,8.38
2022-10-03T03:56:07.079Z,9.68
2022-10-03T03:58:37.644Z,9.45
2022-10-03T04:01:25.007Z,11.00
2022-10-03T04:04:29.172Z,10.48
2022-10-03T04:07:04.653Z,11.48
2022-10-03T04:09:50.560Z,10.68
2022-10-03T04:12:42.240Z,12.43
2022-10-03T04:15:25.639Z,9.20
2022-10-03T04:20:58.841Z,9.43
2022-10-03T04:23:43.933Z,12.10
2022-10-03T04:26:18.009Z,10.50
2022-10-03T04:29:16.972Z,10.32
2022-10-03T04:32:01.306Z,12.85
2022-10-03T04:34:40.017Z,10.52
2022-10-03T04:37:37.632Z,10.98
2022-10-03T04:40:18.262Z,11.75
2022-10-03T04:43:24.398Z,9.30
2022-10-03T04:45:58.222Z,9.63
2022-10-03T04:48:37.901Z,9.70
2022-10-03T04:51:19.072Z,9.38
2022-10-03T04:54:38.625Z,11.77
2022-10-03T04:57:17.444Z,11.15
2022-10-03T04:59:56.166Z,9.00
2022-10-03T05:02:54.404Z,10.80
2022-10-03T05:05:43.647Z,8.48
2022-10-03T05:08:22.875Z,9.32
2022-10-03T05:11:05.747Z,14.02
2022-10-03T05:13:59.767Z,12.13
2022-10-03T05:16:34.947Z,13.00
2022-10-03T05:19:23.491Z,14.15
2022-10-03T05:22:08.769Z,14.88
2022-10-03T05:24:50.013Z,12.52
2022-10-03T05:27:29.423Z,14.07
2022-10-03T05:30:06.770Z,18.67
2022-10-03T05:32:45.227Z,11.32
2022-10-03T05:35:44.438Z,12.35
2022-10-03T05:38:49.119Z,14.45
2022-10-03T05:41:26.088Z,19.27
2022-10-03T05:44:18.377Z,12.93
2022-10-03T05:47:03.110Z,13.13
2022-10-03T05:50:13.337Z,14.55
2022-10-03T05:52:49.344Z,13.95
2022-10-03T05:55:34.599Z,14.63
2022-10-03T05:58:18.002Z,14.63
2022-10-03T06:04:15.362Z,16.40
2022-10-03T06:07:12.803Z,12.57
2022-10-03T06:10:13.574Z,12.23
2022-10-03T06:13:27.258Z,14.65
2022-10-03T06:16:04.114Z,14.07
2022-10-03T06:19:03.721Z,13.35
2022-10-03T06:21:41.849Z,14.82
2022-10-03T06:24:28.926Z,10.90
2022-10-03T06:27:20.402Z,13.75
2022-10-03T06:29:53.958Z,15.95
2022-10-03T06:32:41.676Z,12.40
2022-10-03T06:35:40.138Z,10.45
2022-10-03T06:38:29.750Z,14.98
2022-10-03T06:41:19.453Z,14.63
2022-10-03T06:44:06.576Z,13.82
2022-10-03T06:46:45.531Z,19.63
2022-10-03T06:49:42.799Z,13.98
2022-10-03T06:52:48.384Z,21.45
2022-10-03T06:55:31.739Z,15.15
2022-10-03T07:01:01.614Z,15.43
2022-10-03T07:03:53.135Z,14.13
2022-10-03T07:06:38.604Z,18.85
2022-10-03T07:09:07.686Z,20.33
2022-10-03T07:11:55.956Z,18.27
2022-10-03T07:14:55.320Z,21.17
2022-10-03T07:18:06.197Z,16.83
2022-10-03T07:21:00.426Z,23.08
2022-10-03T07:23:48.794Z,14.82
2022-10-03T07:26:29.252Z,15.05
2022-10-03T07:29:15.008Z,20.52
2022-10-03T07:32:11.341Z,16.60
2022-10-03T07:35:03.476Z,16.13
2022-10-03T07:38:01.049Z,18.08
2022-10-03T07:40:55.367Z,12.13
2022-10-03T07:43:38.345Z,18.00
2022-10-03T07:46:35.184Z,18.52
2022-10-03T07:49:20.238Z,14.70
2022-10-03T07:52:35.367Z,19.98
2022-10-03T07:55:27.675Z,17.25
2022-10-03T07:58:26.367Z,17.10
2022-10-03T08:01:07.816Z,13.70
2022-10-03T08:04:08.638Z,13.25
2022-10-03T08:06:43.352Z,16.45
2022-10-03T08:09:39.101Z,12.65
2022-10-03T08:12:41.917Z,13.15
2022-10-03T08:15:21.438Z,12.90
2022-10-03T08:18:26.474Z,12.80
2022-10-03T08:20:55.634Z,11.38
2022-10-03T08:23:49.649Z,13.93
2022-10-03T08:27:04.414Z,14.57
2022-10-03T08:29:36.926Z,14.77
2022-10-03T08:32:35.804Z,13.50
2022-10-03T08:35:08.384Z,12.05
2022-10-03T08:37:38.705Z,13.75
2022-10-03T08:40:56.537Z,10.80
2022-10-03T08:43:50.651Z,14.65
2022-10-03T08:47:03.996Z,12.02
2022-10-03T08:49:51.736Z,11.43
2022-10-03T08:52:37.757Z,13.18
2022-10-03T08:55:16.341Z,12.68
2022-10-03T08:58:20.880Z,10.07
2022-10-03T09:01:05.667Z,14.07
2022-10-03T09:03:50.820Z,11.52
2022-10-03T09:07:15.367Z,9.35
2022-10-03T09:10:06.792Z,11.93
2022-10-03T09:13:06.654Z,13.45
2022-10-03T09:16:20.750Z,13.65
2022-10-03T09:19:00.364Z,11.73
2022-10-03T09:21:56.590Z,14.35
2022-10-03T09:24:23.048Z,14.07
2022-10-03T09:27:31.506Z,18.23
2022-10-03T09:30:43.081Z,13.20
2022-10-03T09:33:46.360Z,11.95
2022-10-03T09:36:51.887Z,15.23
2022-10-03T09:39:43.127Z,9.77
2022-10-03T09:42:22.264Z,9.70
2022-10-03T09:45:10.795Z,11.38
2022-10-03T09:48:04.957Z,13.93
2022-10-03T09:50:57.519Z,13.43
2022-10-03T09:53:51.425Z,14.17
2022-10-03T09:56:20.772Z,9.50
2022-10-03T09:58:53.173Z,17.23
2022-10-03T10:01:31.173Z,10.55
2022-10-03T10:04:15.973Z,11.93
2022-10-03T10:07:01.878Z,11.30
2022-10-03T10:10:01.317Z,8.45
2022-10-03T10:13:06.008Z,9.45
2022-10-03T10:16:17.507Z,9.20
2022-10-03T10:19:01.991Z,9.68
2022-10-03T10:22:00.837Z,9.02
2022-10-03T10:24:38.760Z,13.40
2022-10-03T10:27:43.028Z,8.48
2022-10-03T10:30:31.456Z,8.30
2022-10-03T10:33:28.239Z,9.05
2022-10-03T10:36:21.839Z,13.75
2022-10-03T10:39:22.697Z,12.52
2022-10-03T10:42:26.441Z,15.65
2022-10-03T10:48:02.143Z,9.15
2022-10-03T10:50:43.754Z,8.15
2022-10-03T10:53:47.755Z,12.75
2022-10-03T10:56:35.513Z,8.93
2022-10-03T10:59:41.898Z,6.47
2022-10-03T11:02:46.177Z,10.98
2022-10-03T11:05:35.052Z,9.07
2022-10-03T11:08:16.812Z,7.55
2022-10-03T11:11:21.334Z,8.32
2022-10-03T11:14:08.589Z,8.43
2022-10-03T11:16:53.664Z,11.85
2022-10-03T11:19:38.671Z,10.32
2022-10-03T11:22:33.209Z,9.77
2022-10-03T11:25:31.759Z,8.98
2022-10-03T11:28:19.037Z,8.40
2022-10-03T11:31:09.501Z,7.35
2022-10-03T11:34:07.854Z,11.27
2022-10-03T11:36:50.488Z,8.65
2022-10-03T11:39:38.731Z,10.23
2022-10-03T11:42:22.698Z,7.03
2022-10-03T11:44:56.976Z,6.63
2022-10-03T11:47:42.901Z,7.82
2022-10-03T11:50:22.938Z,8.98
2022-10-03T11:53:20.973Z,8.18
2022-10-03T11:55:54.614Z,7.53
2022-10-03T11:58:34.375Z,9.93
2022-10-03T12:01:25.619Z,7.53
2022-10-03T12:04:23.495Z,8.02
2022-10-03T12:07:19.420Z,7.00
2022-10-03T12:10:20.054Z,7.90
2022-10-03T12:12:52.945Z,6.28
2022-10-03T12:15:42.275Z,7.90
2022-10-03T12:18:20.269Z,5.22
2022-10-03T12:21:05.172Z,7.43
2022-10-03T12:24:02.989Z,5.88
2022-10-03T12:26:52.219Z,6.43
2022-10-03T12:29:21.700Z,8.77
2022-10-03T12:32:13.363Z,5.72
2022-10-03T12:34:50.168Z,6.05
2022-10-03T12:37:49.076Z,6.28
2022-10-03T12:40:27.514Z,6.65
2022-10-03T12:43:06.171Z,6.53
2022-10-03T12:45:39.123Z,7.13
2022-10-03T12:50:57.533Z,6.40
2022-10-03T12:53:30.118Z,6.45
2022-10-03T12:56:29.902Z,4.65
2022-10-03T12:59:17.996Z,7.55
2022-10-03T13:02:25.970Z,4.00
2022-10-03T13:05:23.388Z,4.70
2022-10-03T13:08:03.668Z,4.88
2022-10-03T13:10:41.756Z,5.22
2022-10-03T13:13:31.913Z,7.35
2022-10-03T13:16:17.342Z,6.38
2022-10-03T13:18:50.878Z,5.93
2022-10-03T13:22:03.263Z,6.60
2022-10-03T13:24:47.271Z,4.63
2022-10-03T13:27:42.971Z,5.45
2022-10-03T13:30:22.504Z,6.07
2022-10-03T13:32:54.562Z,4.85
2022-10-03T13:35:49.048Z,5.27
2022-10-03T13:38:39.848Z,8.05
2022-10-03T13:41:30.639Z,5.32
2022-10-03T13:44:10.715Z,4.97
2022-10-03T13:46:48.821Z,5.00
2022-10-03T13:49:32.298Z,4.78
2022-10-03T13:52:15.815Z,5.72
2022-10-03T13:55:18.239Z,7.75
2022-10-03T13:58:11.594Z,8.07
2022-10-03T14:03:48.773Z,9.27
2022-10-03T14:06:24.184Z,8.02
2022-10-03T14:09:21.747Z,5.57
2022-10-03T14:12:04.829Z,5.80
2022-10-03T14:14:52.391Z,11.07
2022-10-03T14:17:45.926Z,8.77
2022-10-03T14:23:12.048Z,6.90
2022-10-03T14:25:45.715Z,5.72
2022-10-03T14:28:22.877Z,5.32
2022-10-03T14:31:09.067Z,7.40
2022-10-03T14:33:47.007Z,5.03
2022-10-03T14:36:22.507Z,9.77
2022-10-03T14:39:10.877Z,7.82
2022-10-03T14:42:22.577Z,13.73
2022-10-03T14:45:29.257Z,11.13
2022-10-03T14:48:13.200Z,8.70
2022-10-03T14:50:42.171Z,6.30
2022-10-03T14:53:27.132Z,6.15
2022-10-03T14:56:06.462Z,5.80
2022-10-03T14:58:54.414Z,9.27
2022-10-03T15:01:28.373Z,8.63
2022-10-03T15:04:24.824Z,6.13
2022-10-03T15:07:35.708Z,6.32
2022-10-03T15:10:10.655Z,5.78
2022-10-03T15:12:40.862Z,6.20
2022-10-03T15:15:10.509Z,7.43
2022-10-03T15:17:48.381Z,4.97
2022-10-03T15:20:19.887Z,11.27
2022-10-03T15:22:58.879Z,7.10
2022-10-03T15:25:44.822Z,6.35
2022-10-03T15:28:20.587Z,10.27
2022-10-03T15:30:49.129Z,5.35
2022-10-03T15:33:42.777Z,5.93
2022-10-03T15:36:56.743Z,7.97
2022-10-03T15:42:28.859Z,5.53
2022-10-03T15:47:33.737Z,9.77
2022-10-03T15:53:17.907Z,8.32
2022-10-03T15:55:50.490Z,7.20
2022-10-03T15:58:39.155Z,7.68
2022-10-03T16:01:20.788Z,8.10
2022-10-03T16:03:59.269Z,10.75
2022-10-03T16:06:47.314Z,8.05
2022-10-03T16:09:50.550Z,6.07
2022-10-03T16:12:19.980Z,5.75
2022-10-03T16:14:56.315Z,5.55
2022-10-03T16:17:54.737Z,7.10
2022-10-03T16:20:47.303Z,5.60
2022-10-03T16:23:24.424Z,6.60
2022-10-03T16:26:14.490Z,5.47
2022-10-03T16:28:52.288Z,7.88
2022-10-03T16:31:29.800Z,9.13
2022-10-03T16:34:03.805Z,13.15
2022-10-03T16:36:40.103Z,8.60
2022-10-03T16:39:18.398Z,7.53
2022-10-03T16:41:47.405Z,7.05
2022-10-03T16:44:27.728Z,5.40
2022-10-03T16:46:59.468Z,7.55
2022-10-03T16:49:44.245Z,8.10
2022-10-03T16:52:13.741Z,5.72
2022-10-03T16:54:43.784Z,7.32
2022-10-03T16:57:19.662Z,6.30
2022-10-03T16:59:49.358Z,6.78
2022-10-03T17:02:24.449Z,6.95
2022-10-03T17:05:02.854Z,6.97
2022-10-03T17:07:37.150Z,9.25
2022-10-03T17:10:05.363Z,14.98
2022-10-03T17:12:37.122Z,20.30
2022-10-03T17:15:20.661Z,21.15
2022-10-03T17:18:08.072Z,12.50
2022-10-03T17:20:48.227Z,10.13
2022-10-03T17:23:33.505Z,11.02
2022-10-03T17:26:07.506Z,13.65
2022-10-03T17:28:55.725Z,13.82
2022-10-03T17:31:34.050Z,12.38
2022-10-03T17:34:18.542Z,12.70
2022-10-03T17:37:03.836Z,11.73
2022-10-03T17:39:48.545Z,11.60
2022-10-03T17:42:34.808Z,10.98
2022-10-03T17:45:33.254Z,13.05
2022-10-03T17:48:25.271Z,11.98
2022-10-03T17:51:10.753Z,12.32
2022-10-03T17:53:38.936Z,12.65
2022-10-03T17:56:20.317Z,10.18
2022-10-03T17:59:02.084Z,9.65
2022-10-03T18:01:53.825Z,10.82
2022-10-03T18:04:33.423Z,12.63
2022-10-03T18:07:09.452Z,10.63
2022-10-03T18:09:40.986Z,9.77
2022-10-03T18:12:16.846Z,14.02
2022-10-03T18:15:02.235Z,9.68
2022-10-03T18:17:56.180Z,9.00
2022-10-03T18:20:41.987Z,8.38
2022-10-03T18:23:36.746Z,10.77
2022-10-03T18:26:19.922Z,13.82
2022-10-03T18:31:30.269Z,9.90
2022-10-03T18:34:04.875Z,11.35
2022-10-03T18:37:46.649Z,11.35
2022-10-03T18:40:24.045Z,14.02
2022-10-03T18:42:52.080Z,10.50
2022-10-03T18:48:17.994Z,12.00
2022-10-03T18:51:11.085Z,9.77
2022-10-03T18:53:47.546Z,8.23
2022-10-03T18:56:23.349Z,9.65
2022-10-03T18:59:21.757Z,12.55
2022-10-03T19:01:57.027Z,9.23
2022-10-03T19:07:31.526Z,10.13
2022-10-03T19:18:21.143Z,11.68
2022-10-03T19:30:15.901Z,12.43
2022-10-03T19:37:15.790Z,14.00
2022-10-03T19:39:44.718Z,9.77
2022-10-03T19:42:37.523Z,10.52
2022-10-03T19:45:04.871Z,12.13
2022-10-03T19:47:38.185Z,9.80
2022-10-03T19:50:23.958Z,14.57
2022-10-03T19:52:50.732Z,10.82
2022-10-03T19:55:46.704Z,11.05
2022-10-03T19:58:23.185Z,11.63
2022-10-03T20:00:57.264Z,14.55
2022-10-03T20:06:08.546Z,12.50
2022-10-03T20:09:05.714Z,11.82
2022-10-03T20:11:55.210Z,11.50
2022-10-03T20:14:32.367Z,11.98
2022-10-03T20:17:02.715Z,11.55
2022-10-03T20:23:15.415Z,10.63
2022-10-03T20:25:51.594Z,9.05
2022-10-03T20:28:30.987Z,11.93
2022-10-03T20:31:03.311Z,11.87
2022-10-03T20:33:33.042Z,11.70
2022-10-03T20:36:06.706Z,13.70
2022-10-03T20:38:54.880Z,11.48
2022-10-03T20:41:31.682Z,9.98
2022-10-03T20:44:07.222Z,10.05
2022-10-03T20:47:02.732Z,10.35
2022-10-03T20:49:54.392Z,12.13
2022-10-03T20:52:24.825Z,10.77
2022-10-03T20:54:57.628Z,8.93
2022-10-03T20:57:50.655Z,10.80
2022-10-03T21:00:22.684Z,8.73
2022-10-03T21:03:07.067Z,9.80
2022-10-03T21:05:41.815Z,10.45
2022-10-03T21:08:21.566Z,12.18
2022-10-03T21:10:55.146Z,9.15
2022-10-03T21:13:31.062Z,9.25
2022-10-03T21:15:59.578Z,9.75
2022-10-03T21:18:35.926Z,8.60
2022-10-03T21:21:15.139Z,9.50
2022-10-03T21:23:49.928Z,7.85
2022-10-03T21:26:24.864Z,8.90
2022-10-03T21:29:36.944Z,8.80
2022-10-03T21:32:34.190Z,9.27
2022-10-03T21:35:26.365Z,12.10
2022-10-03T21:38:27.335Z,10.02
2022-10-03T21:41:18.449Z,10.63
2022-10-03T21:44:12.910Z,14.38
2022-10-03T21:46:56.458Z,11.65
2022-10-03T21:49:31.678Z,10.60
2022-10-03T21:52:23.822Z,11.98
2022-10-03T21:55:11.274Z,11.43
2022-10-03T21:58:19.703Z,11.05
2022-10-03T22:01:12.125Z,9.30
2022-10-03T22:04:01.132Z,10.20
2022-10-03T22:06:35.932Z,10.68
2022-10-03T22:09:06.050Z,10.15
2022-10-03T22:11:49.918Z,8.27
2022-10-03T22:14:53.170Z,6.40
2022-10-03T22:17:49.375Z,5.57
2022-10-03T22:20:28.258Z,7.18
2022-10-03T22:23:28.231Z,6.72
2022-10-03T22:26:14.382Z,6.50
2022-10-03T22:29:04.533Z,6.45
2022-10-03T22:31:44.215Z,9.95
2022-10-03T22:34:38.104Z,8.45
2022-10-03T22:53:53.864Z,15.57
2022-10-03T22:56:51.791Z,8.82
2022-10-03T22:59:25.757Z,8.52
2022-10-03T23:01:54.409Z,7.90
2022-10-03T23:04:43.611Z,6.97
2022-10-03T23:07:23.435Z,7.10
2022-10-03T23:10:14.236Z,6.18
2022-10-03T23:13:07.047Z,7.43
2022-10-03T23:15:37.259Z,6.65
2022-10-03T23:18:38.950Z,5.82
2022-10-03T23:21:08.379Z,5.95
2022-10-03T23:24:00.518Z,5.85
2022-10-03T23:26:39.034Z,6.22
2022-10-03T23:29:16.880Z,9.55
2022-10-03T23:32:03.945Z,6.10
2022-10-03T23:34:36.553Z,8.00
2022-10-03T23:37:14.954Z,6.07
2022-10-03T23:39:57.488Z,6.13
2022-10-03T23:42:31.275Z,6.20
2022-10-03T23:45:11.548Z,6.90
2022-10-03T23:48:01.478Z,6.85
2022-10-03T23:50:40.032Z,5.63
2022-10-03T23:53:08.147Z,7.47
2022-10-03T23:55:37.021Z,6.72
2022-10-03T23:58:22.619Z,7.20
